Atlantic - Newfoundland: Past 24 Hour Conditions

 

Twillingate

06:30 PM NST 20 November 2014
This table is a summary of hourly weather conditions for the past 24 hours.
Date / Time
(NST)
Wind(knots) Conditions Visibility(km) Pressure(kPa) Air tempC) Relative humidity(%) Dew pointC) Wind Chill
20 November 2014
18:30 SW 17 gust 23 N/A N/A 101.6 -1 60 -8 -8
17:30 SW 18 N/A N/A 101.6 -1 60 -8 -8
16:30 SW 18 gust 27 N/A N/A 101.5 -1 55 -9 -8
15:30 SW 17 gust 25 N/A N/A 101.4 0 51 -9 -7
14:30 SW 15 gust 22 N/A N/A 101.4 0 51 -9 *
13:30 WSW 16 gust 25 N/A N/A 101.3 0 60 -7 -7
12:30 SW 18 N/A N/A 101.3 1 56 -7 *
11:30 WSW 24 gust 34 N/A N/A 101.3 -1 56 -9 -9
10:30 WSW 20 gust 30 N/A N/A 101.3 -1 55 -9 -8
9:30 WSW 28 gust 36 N/A N/A 101.2 -1 58 -8 -10
8:30 WSW 29 gust 38 N/A N/A 101.2 -1 60 -8 -10
7:30 WSW 28 gust 38 N/A N/A 101.1 -2 62 -8 -10
6:30 WSW 28 gust 38 N/A N/A 101.0 -2 68 -7 -11
5:30 WSW 31 gust 42 N/A N/A 100.9 -2 67 -7 -11
4:30 WSW 34 gust 43 N/A N/A 100.7 -1 61 -8 -11
3:30 WSW 28 gust 40 N/A N/A 100.6 -1 67 -7 -10
2:30 WSW 30 gust 39 N/A N/A 100.5 -1 67 -6 -10
1:30 WSW 37 gust 49 N/A N/A 100.4 -1 64 -7 -10
0:30 WSW 33 gust 45 N/A N/A 100.3 -1 75 -5 -11
19 November 2014
23:30 WSW 34 gust 47 N/A N/A 100.1 -1 68 -6 -10
22:30 WSW 35 gust 44 N/A N/A 100.0 -1 65 -7 -10
21:30 WSW 28 gust 43 N/A N/A 99.9 -1 71 -5 -9
20:30 WSW 30 gust 44 N/A N/A 99.8 -1 70 -6 -10
19:30 WSW 30 gust 40 N/A N/A 99.6 -1 69 -6 -10
18:30 SW 28 gust 38 N/A N/A 99.5 -1 68 -6 -9
 
Map of Atlantic - Newfoundland marine weather areas Southwestern Grand Banks - 44138 Banquereau - 44139 Tail of the Bank - 44140 Nickerson Bank - 44251 Northeast Burgeo Bank - 44255 Blanc-Sablon Airport Cap Whittle Chevery Natashquan Airport Heath Point Miscou Island Grand Étang Ingonish Beach North Mountain St.Paul Island J.A. Douglas McCurdy Sydney Airport Charlottetown Airport East Point North Cape Argentia Bonavista Burgeo Cape Race Corner Brook Daniel's Harbour Englee Ferolle Point La Scie Port aux Basques Rocky Harbour Sagona Island St. Anthony Airport St. John's Int'l Airport St. Lawrence Stephenville Airport Twillingate Winterland Wreckhouse Cartwright Airport Mary's Harbour Grates Cove Pool's Island Marticot Island Long Pond Îles de la Madeleine Airport
Legend: buoyBuoy land stationLand Station